Jump to content

Search the Community

Showing results for tags 'Steam-SE'.



More search options

  • Search By Tags

    Type tags separated by commas.
  • Search By Author

Content Type


Forums

  • New Member Forums
    • Welcome New Members!
    • Help Using the AVSIM Forums
    • Help Creating an AVSIM Account and Logging on to AVSIM
  • AVSIM Fixed Based Operations (FBO)!
    • Hangar Chat
    • Flight Planning
    • Virtual Reality (VR) Hardware and Games
    • Letters to the Editorial Staff of AVSIM
    • All About Us
    • Crash To Desktop (CTD) Forum
    • The Bargain Hunter's Shack
    • Classified Ads | Want Ads | Swap Meet
    • AVSIM's Round the World Race Forum
    • AVSIM Reviews Feedback
    • The File Library General Forum
    • Flight Sim & Aviation User Stories
    • In Memoriam of Tom Allensworth
    • In Memoriam
  • Microsoft Flight Simulator Forums
    • Microsoft Flight Simulator (2020)
    • MS FSX | FSX-SE Forum
    • The Microsoft Flight (2012) Forum
    • The FS2004 (FS9) Forum
    • Flight Simulator Tips and Tricks
    • Shared Cockpits | Multi-Player Forum for FSX | FSX-SE | P3D
    • MS FSX | FSX=SE | P3D Simconnect Forum
    • FSX | P3D Missions Forum - How To
    • FSX/FSX-SE Aircraft and Panel Design Forum - How To
    • FSX | FSX-SE Scenery Design Forum - How To
    • The Paint Shop - The Aircraft Painter's Forum - How To
    • Mesh Scenery Design - How To
    • TTools for MSFS Forum
    • Add On Developer's Forum
    • DX-10 Discussions, Hints and Help
  • The Prepar3D Forums
    • The Prepar3d Forum
    • Prepar3D Tips, Tricks and How To's
  • The X-Plane Forums
    • The X-Plane General Discussions Forum
    • X-Plane Tips and Tricks
  • The IPACS Aerofly Forums
    • IPACS AeroFly FS2
  • Simulator Screen Shots, Real Aviation Photos, & Videos
    • The AVSIM Screen Shots Forum
    • Real Aviation Photos
    • Aviation and Flight Sim Video Forum
  • Hardware & Operating Systems Discussions
    • WIN10 OS Forum
    • WIN8 OS Forum
    • The Win7 OS Forum
    • MOBO | RAM | CPU | HDD | SSD | Desktops | Laptops
    • Monitors | Multi-Monitors | Video Cards | Drivers
    • Hardware Controllers | Joysticks | Drivers
    • Networks | WIFI | Routers | Ethernet | DSL | Cable Modems
  • Commercial Support Forums (Hosted by AVSIM)
    • FS2Crew Support Forum
    • Mindstar Aviation Support Forum
    • The RealityXP Support Forum
    • The Official DX10 Scenery Fixer Support Forum
    • The Multi-Crew Experience (MCE) Support Forum
    • Virtual Avionics Support Forum
    • Lorby-SI Support Forum
    • Pilot2ATC Users Forum
    • The Carenado Support Forum
    • The Alabeo Support Forum
    • Remote CDU for Phone / Tablet Official Support Forum
    • Airline2Sim Support Forum
    • SX Airport Design Forum
    • P3D Tweak Assistant (PTA) and RealismShaderPack
    • The simPlugins Support Forum
    • SimSettingsManager Official Support Forum
    • simFDR General Support Forum
    • Blue Sky Star Simulations Support Forum
    • Capt. PERO Support Forum
    • Flysimware Forum
    • Mid-Atlantic Air Museum Simulations Support
    • FSReborn Series Support Forum
    • Desk Pilot - Shared Cockpits
    • PhotoSim Labs - Bahamas sceneries
    • Fulcrum Simulator Controls
  • User-to-User Support Forums
  • Freeware Support Forums
  • Virtual Airlines News and Discussion
  • Home Cockpit Builders
  • Other Civil Aviation Simulators
  • International Language Forums
  • Other Forums

Categories

  • Articles
  • AVSIM News
  • File Library News
  • AVSIM Reviews
    • Hardware
    • Aircraft
    • Scenery
  • Product Announcements & Press Releases
  • What's New @ AVSIM
  • Interviews
  • AVSIM Editorials
  • Guest Editorials
  • Obituaries

Blogs

  • Tom Allensworth's Blog
  • Gaiiden's Scroll
  • Brandon's Box
  • Jess B's X-plane blog thingy
  • Tom_Test's Blog
  • Alpha Floor's Logbook
  • GolfPilot
  • adi518's Blog
  • Chase's Blog
  • The Big Tour
  • Tales of a Wannabe Pilot
  • Farmer Looking Skyward

Find results in...

Find results that contain...


Date Created

  • Start

    End


Last Updated

  • Start

    End


Filter by number of...

Joined

  • Start

    End


Group


AIM


MSN


Website URL


ICQ


Yahoo


Jabber


Skype


Location


Interests


About Me


About Me

Found 2 results

  1. hello good night (on Brazil) i have a problem with metar (all world metar are wrong) on Active Sky Next SE yes i use FSX-SE the metar on Active Sky on SBSG (example of São Gonçalo Airport located on Rio Grande do Norte State/Brazil) SBSG 230533Z 18015KT 9999 SCT025 24/21 Q1012 and report in real time on the station METAR: SBSG 230500Z 24003KT 200V280 9999 FEW018 22/21 Q1012 another example of SBGR (Guarulhos Intl. Airport located on São Paulo State/Brazil) real: METAR: SBGR 230500Z 00000KT CAVOK 12/11 Q1021 (wind calm) and active sky: SBGR 230533Z 06005KT CAVOK 17/12 Q1021 i'm new in Avsim and my english is not good 😉 Note: All the airports with wrong metar... are the servers under maintenance or not? this is my question, during the day it's work fine. Or are the stations reporting incorrectly because of Covid-19? i dont't understand hahahahha if you can clear this doubt I am grateful I would not like to spend money for nothing
  2. Anyone else having this issue? It's more of a nusiance since it doesn't seem to be causing issues, but when I allow Steam to verify my FSX files, it brings this error up each time... "3 files failed to validate and will be reacquired"
×
×
  • Create New...